createdAt,value
2023-05-18T00:00:14.535Z,15.98
2023-05-18T00:02:43.918Z,15.77
2023-05-18T00:05:12.287Z,16.15
2023-05-18T00:07:41.283Z,15.85
2023-05-18T00:10:12.445Z,15.70
2023-05-18T00:12:41.738Z,15.70
2023-05-18T00:15:11.582Z,15.62
2023-05-18T00:17:40.299Z,15.69
2023-05-18T00:20:09.923Z,15.70
2023-05-18T00:22:39.297Z,15.91
2023-05-18T00:25:08.225Z,15.87
2023-05-18T00:27:37.808Z,15.92
2023-05-18T00:30:07.146Z,15.54
2023-05-18T00:32:37.905Z,15.74
2023-05-18T00:35:07.700Z,15.66
2023-05-18T00:37:36.275Z,15.66
2023-05-18T00:40:06.777Z,15.58
2023-05-18T00:42:35.204Z,15.39
2023-05-18T00:45:05.795Z,15.52
2023-05-18T00:47:34.555Z,15.63
2023-05-18T00:50:03.339Z,15.44
2023-05-18T00:52:34.134Z,15.14
2023-05-18T00:55:03.024Z,15.09
2023-05-18T00:57:33.744Z,15.02
2023-05-18T01:00:02.534Z,15.08
2023-05-18T01:02:37.302Z,15.25
2023-05-18T01:05:06.577Z,15.31
2023-05-18T01:07:35.139Z,15.26
2023-05-18T01:10:03.867Z,15.52
2023-05-18T01:12:36.343Z,15.77
2023-05-18T01:15:10.006Z,15.14
2023-05-18T01:18:00.913Z,15.14
2023-05-18T01:20:38.229Z,14.92
2023-05-18T01:23:20.786Z,15.06
2023-05-18T01:25:55.538Z,15.39
2023-05-18T01:28:31.344Z,15.46
2023-05-18T01:31:00.855Z,15.66
2023-05-18T01:33:29.436Z,15.81
2023-05-18T01:35:57.998Z,16.20
2023-05-18T01:38:29.530Z,16.41
2023-05-18T01:41:05.010Z,16.64
2023-05-18T01:43:36.583Z,16.88
2023-05-18T01:46:15.069Z,17.42
2023-05-18T01:48:49.836Z,17.45
2023-05-18T01:51:22.407Z,17.50
2023-05-18T01:53:58.805Z,18.41
2023-05-18T01:56:28.739Z,18.37
2023-05-18T01:58:59.646Z,18.45
2023-05-18T02:01:28.557Z,18.69
2023-05-18T02:03:56.886Z,19.28
2023-05-18T02:06:25.663Z,19.14
2023-05-18T02:08:55.153Z,19.22
2023-05-18T02:11:23.758Z,19.01
2023-05-18T02:13:53.012Z,19.74
2023-05-18T02:16:23.124Z,19.69
2023-05-18T02:18:54.235Z,19.67
2023-05-18T02:21:23.089Z,20.33
2023-05-18T02:23:51.671Z,20.80
2023-05-18T02:26:20.199Z,20.62
2023-05-18T02:28:54.760Z,21.38
2023-05-18T02:31:24.947Z,21.96
2023-05-18T02:33:57.185Z,21.27
2023-05-18T02:36:25.869Z,22.25
2023-05-18T02:38:57.678Z,23.05
2023-05-18T02:41:28.130Z,23.19
2023-05-18T02:43:56.822Z,23.17
2023-05-18T02:46:28.941Z,22.75
2023-05-18T02:48:57.722Z,23.04
2023-05-18T02:51:26.876Z,22.60
2023-05-18T02:53:56.037Z,23.22
2023-05-18T02:56:25.323Z,23.98
2023-05-18T02:59:06.075Z,23.59
2023-05-18T03:01:43.088Z,23.09
2023-05-18T03:04:14.179Z,22.94
2023-05-18T03:06:53.034Z,22.94
2023-05-18T03:09:23.774Z,22.83
2023-05-18T03:11:55.221Z,22.80
2023-05-18T03:14:23.957Z,23.05
2023-05-18T03:16:54.427Z,24.04
2023-05-18T03:19:27.263Z,23.95
2023-05-18T03:21:58.040Z,23.52
2023-05-18T03:24:30.607Z,23.46
2023-05-18T03:27:02.595Z,22.82
2023-05-18T03:29:31.718Z,22.71
2023-05-18T03:32:05.280Z,22.63
2023-05-18T03:34:35.292Z,21.74
2023-05-18T03:37:04.286Z,21.35
2023-05-18T03:39:34.707Z,20.52
2023-05-18T03:42:03.450Z,20.35
2023-05-18T03:44:32.113Z,20.79
2023-05-18T03:47:00.892Z,20.32
2023-05-18T03:49:31.005Z,20.33
2023-05-18T03:52:00.225Z,19.95
2023-05-18T03:54:28.667Z,20.46
2023-05-18T03:56:57.203Z,20.44
2023-05-18T03:59:25.789Z,20.76
2023-05-18T04:01:54.841Z,20.59
2023-05-18T04:04:27.706Z,20.95
2023-05-18T04:06:58.010Z,20.85
2023-05-18T04:09:28.167Z,21.08
2023-05-18T04:11:57.044Z,21.06
2023-05-18T04:14:28.349Z,21.36
2023-05-18T04:16:58.470Z,21.45
2023-05-18T04:19:27.240Z,21.50
2023-05-18T04:21:55.572Z,22.08
2023-05-18T04:24:27.045Z,21.62
2023-05-18T04:26:56.219Z,22.04
2023-05-18T04:29:24.966Z,22.15
2023-05-18T04:31:53.814Z,22.20
2023-05-18T04:34:22.375Z,21.81
2023-05-18T04:36:50.925Z,21.97
2023-05-18T04:39:19.658Z,22.45
2023-05-18T04:41:50.687Z,22.60
2023-05-18T04:44:20.344Z,22.73
2023-05-18T04:46:49.118Z,22.77
2023-05-18T04:49:26.437Z,22.88
2023-05-18T04:51:59.184Z,22.90
2023-05-18T04:54:32.036Z,23.04
2023-05-18T04:57:03.587Z,23.18
2023-05-18T04:59:37.094Z,23.40
2023-05-18T05:02:06.643Z,23.65
2023-05-18T05:04:35.289Z,23.65
2023-05-18T05:07:04.360Z,23.80
2023-05-18T05:09:33.052Z,23.51
2023-05-18T05:12:03.532Z,23.84
2023-05-18T05:14:32.185Z,24.24
2023-05-18T05:17:00.689Z,24.28
2023-05-18T05:19:29.240Z,24.72
2023-05-18T05:21:58.245Z,24.51
2023-05-18T05:24:26.988Z,24.71
2023-05-18T05:26:55.336Z,25.06
2023-05-18T05:29:26.575Z,24.91
2023-05-18T05:31:55.987Z,25.00
2023-05-18T05:34:25.032Z,25.25
2023-05-18T05:36:53.570Z,25.47
2023-05-18T05:39:22.254Z,24.87
2023-05-18T05:41:51.758Z,25.08
2023-05-18T05:44:20.505Z,25.43
2023-05-18T05:46:50.817Z,25.25
2023-05-18T05:49:20.199Z,25.11
2023-05-18T05:51:49.012Z,24.87
2023-05-18T05:54:18.046Z,25.29
2023-05-18T05:56:46.502Z,25.78
2023-05-18T05:59:22.748Z,25.23
2023-05-18T06:01:52.977Z,25.51
2023-05-18T06:04:22.383Z,26.12
2023-05-18T06:06:51.387Z,26.33
2023-05-18T06:09:20.320Z,25.29
2023-05-18T06:11:50.773Z,25.79
2023-05-18T06:14:19.918Z,26.20
2023-05-18T06:16:48.601Z,26.65
2023-05-18T06:19:18.490Z,26.66
2023-05-18T06:21:47.634Z,25.95
2023-05-18T06:24:16.669Z,25.84
2023-05-18T06:27:04.314Z,27.51
2023-05-18T06:29:42.613Z,26.03
2023-05-18T06:32:46.715Z,26.15
2023-05-18T06:35:16.517Z,27.85
2023-05-18T06:37:46.923Z,26.68
2023-05-18T06:40:16.345Z,27.10
2023-05-18T06:42:45.054Z,26.64
2023-05-18T06:45:39.586Z,26.87
2023-05-18T06:48:15.282Z,27.65
2023-05-18T06:50:45.295Z,27.54
2023-05-18T06:53:14.259Z,26.48
2023-05-18T06:55:42.873Z,26.68
2023-05-18T06:58:11.907Z,26.61
2023-05-18T07:00:40.775Z,26.99
2023-05-18T07:03:11.249Z,26.81
2023-05-18T07:05:39.981Z,26.90
2023-05-18T07:08:10.012Z,27.42
2023-05-18T07:10:38.866Z,27.55
2023-05-18T07:13:07.378Z,27.01
2023-05-18T07:15:36.197Z,26.92
2023-05-18T07:18:05.355Z,27.69
2023-05-18T07:20:33.976Z,27.54
2023-05-18T07:23:02.448Z,27.44
2023-05-18T07:25:33.076Z,27.57
2023-05-18T07:28:01.797Z,27.33
2023-05-18T07:30:30.821Z,27.52
2023-05-18T07:32:59.222Z,28.73
2023-05-18T07:35:27.633Z,29.16
2023-05-18T07:37:56.316Z,29.26
2023-05-18T07:40:24.930Z,28.68
2023-05-18T07:42:54.713Z,29.48
2023-05-18T07:45:24.058Z,28.40
2023-05-18T07:47:52.740Z,28.45
2023-05-18T07:50:21.568Z,28.05
2023-05-18T07:52:49.793Z,29.05
2023-05-18T07:55:18.875Z,27.95
2023-05-18T07:57:47.865Z,27.99
2023-05-18T08:00:19.252Z,28.38
2023-05-18T08:02:48.243Z,27.41
2023-05-18T08:05:16.942Z,27.65
2023-05-18T08:07:45.328Z,28.49
2023-05-18T08:10:13.730Z,28.03
2023-05-18T08:12:42.068Z,28.75
2023-05-18T08:15:11.676Z,28.20
2023-05-18T08:17:41.783Z,27.49
2023-05-18T08:20:11.915Z,27.94
2023-05-18T08:22:40.657Z,28.10
2023-05-18T08:25:10.375Z,28.10
2023-05-18T08:27:38.977Z,28.10
2023-05-18T08:30:08.313Z,27.97
2023-05-18T08:32:37.724Z,28.17
2023-05-18T08:35:10.212Z,28.20
2023-05-18T08:37:39.915Z,28.69
2023-05-18T08:40:11.495Z,29.10
2023-05-18T08:42:50.366Z,29.15
2023-05-18T08:45:30.375Z,27.95
2023-05-18T08:48:03.506Z,28.29
2023-05-18T08:50:34.310Z,28.82
2023-05-18T08:53:06.789Z,29.45
2023-05-18T08:55:37.278Z,30.30
2023-05-18T08:58:09.137Z,29.75
2023-05-18T09:00:38.398Z,28.80
2023-05-18T09:03:07.510Z,28.11
2023-05-18T09:05:37.932Z,28.32
2023-05-18T09:08:08.434Z,28.40
2023-05-18T09:10:38.239Z,28.97
2023-05-18T09:13:07.732Z,28.03
2023-05-18T09:15:36.544Z,28.37
2023-05-18T09:18:05.322Z,28.33
2023-05-18T09:20:34.018Z,28.75
2023-05-18T09:23:04.056Z,29.81
2023-05-18T09:25:35.291Z,28.73
2023-05-18T09:28:05.224Z,29.50
2023-05-18T09:30:41.623Z,29.12
2023-05-18T09:33:19.194Z,29.01
2023-05-18T09:35:48.242Z,28.36
2023-05-18T09:38:22.093Z,29.09
2023-05-18T09:40:51.949Z,28.83
2023-05-18T09:43:20.707Z,29.46
2023-05-18T09:45:50.864Z,29.07
2023-05-18T09:48:19.402Z,28.42
2023-05-18T09:50:47.924Z,28.01
2023-05-18T09:53:16.467Z,28.28
2023-05-18T09:55:50.497Z,28.25
2023-05-18T09:58:19.169Z,28.65
2023-05-18T10:00:51.981Z,29.53
2023-05-18T10:03:22.331Z,29.03
2023-05-18T10:05:51.763Z,28.28
2023-05-18T10:08:20.306Z,28.84
2023-05-18T10:10:50.974Z,29.94
2023-05-18T10:13:21.013Z,29.07
2023-05-18T10:15:52.119Z,28.18
2023-05-18T10:18:24.321Z,27.58
2023-05-18T10:20:55.548Z,27.14
2023-05-18T10:23:26.165Z,27.52
2023-05-18T10:25:56.360Z,27.74
2023-05-18T10:28:28.981Z,28.34
2023-05-18T10:30:59.613Z,27.79
2023-05-18T10:33:30.486Z,28.37
2023-05-18T10:35:59.415Z,29.05
2023-05-18T10:38:29.233Z,28.18
2023-05-18T10:41:01.484Z,28.88
2023-05-18T10:43:30.816Z,29.61
2023-05-18T10:46:04.667Z,29.88
2023-05-18T10:48:33.304Z,29.40
2023-05-18T10:51:05.688Z,29.84
2023-05-18T10:53:34.845Z,28.09
2023-05-18T10:56:04.830Z,29.50
2023-05-18T10:58:36.706Z,29.41
2023-05-18T11:01:08.520Z,29.52
2023-05-18T11:03:39.633Z,28.82
2023-05-18T11:06:10.706Z,28.68
2023-05-18T11:08:47.881Z,28.65
2023-05-18T11:11:19.996Z,28.64
2023-05-18T11:13:51.559Z,29.38
2023-05-18T11:16:23.196Z,29.82
2023-05-18T11:18:54.385Z,29.10
2023-05-18T11:21:35.276Z,28.88
2023-05-18T11:24:26.988Z,29.27
2023-05-18T11:27:01.182Z,29.20
2023-05-18T11:29:37.305Z,29.47
2023-05-18T11:32:06.809Z,29.55
2023-05-18T11:34:48.362Z,28.69
2023-05-18T11:37:17.977Z,28.39
2023-05-18T11:39:59.660Z,29.35
2023-05-18T11:42:35.367Z,29.88
2023-05-18T11:45:11.696Z,28.97
2023-05-18T11:47:41.500Z,29.52
2023-05-18T11:50:12.540Z,29.51
2023-05-18T11:52:48.809Z,29.53
2023-05-18T11:55:21.271Z,28.85
2023-05-18T11:57:53.560Z,29.16
2023-05-18T12:00:22.853Z,28.59
2023-05-18T12:02:52.923Z,29.31
2023-05-18T12:05:24.388Z,28.60
2023-05-18T12:07:54.898Z,28.65
2023-05-18T12:10:23.770Z,28.66
2023-05-18T12:12:58.795Z,29.05
2023-05-18T12:15:34.614Z,29.34
2023-05-18T12:18:03.148Z,29.44
2023-05-18T12:20:31.844Z,30.23
2023-05-18T12:23:01.293Z,28.51
2023-05-18T12:25:30.130Z,29.04
2023-05-18T12:28:00.702Z,29.59
2023-05-18T12:30:35.884Z,29.03
2023-05-18T12:33:05.389Z,28.77
2023-05-18T12:35:36.795Z,28.34
2023-05-18T12:38:05.407Z,28.93
2023-05-18T12:40:46.707Z,29.18
2023-05-18T12:43:16.888Z,29.26
2023-05-18T12:45:47.115Z,29.61
2023-05-18T12:48:16.172Z,29.39
2023-05-18T12:50:51.589Z,29.47
2023-05-18T12:53:21.035Z,28.23
2023-05-18T12:55:58.282Z,28.09
2023-05-18T12:58:28.342Z,29.12
2023-05-18T13:00:57.179Z,29.33
2023-05-18T13:03:26.196Z,28.83
2023-05-18T13:06:09.919Z,28.74
2023-05-18T13:08:38.720Z,28.75
2023-05-18T13:11:14.238Z,29.25
2023-05-18T13:14:03.565Z,29.13
2023-05-18T13:16:32.969Z,29.44
2023-05-18T13:19:04.105Z,29.41
2023-05-18T13:21:32.897Z,28.39
2023-05-18T13:24:02.900Z,29.73
2023-05-18T13:26:31.879Z,29.87
2023-05-18T13:29:01.288Z,29.84
2023-05-18T13:31:31.252Z,29.39
2023-05-18T13:33:59.880Z,30.20
2023-05-18T13:36:29.782Z,29.89
2023-05-18T13:38:58.470Z,30.05
2023-05-18T13:41:27.391Z,30.59
2023-05-18T13:43:55.903Z,30.31
2023-05-18T13:46:25.485Z,30.72
2023-05-18T13:48:55.386Z,30.15
2023-05-18T13:51:23.859Z,29.73
2023-05-18T13:53:52.336Z,29.72
2023-05-18T13:56:21.258Z,29.60
2023-05-18T13:58:50.281Z,28.62
2023-05-18T14:01:22.389Z,28.07
2023-05-18T14:03:50.964Z,27.78
2023-05-18T14:06:21.448Z,27.94
2023-05-18T14:08:52.335Z,28.25
2023-05-18T14:11:21.788Z,28.08
2023-05-18T14:13:50.520Z,28.43
2023-05-18T14:16:19.040Z,28.53
2023-05-18T14:18:47.479Z,28.95
2023-05-18T14:21:15.915Z,28.69
2023-05-18T14:23:47.825Z,28.41
2023-05-18T14:26:20.632Z,27.58
2023-05-18T14:28:49.164Z,27.57
2023-05-18T14:31:20.150Z,27.86
2023-05-18T14:33:48.937Z,27.92
2023-05-18T14:36:17.438Z,28.67
2023-05-18T14:38:48.229Z,28.10
2023-05-18T14:41:16.781Z,28.32
2023-05-18T14:43:46.714Z,28.40
2023-05-18T14:46:17.441Z,28.08
2023-05-18T14:48:46.027Z,28.07
2023-05-18T14:51:16.089Z,27.93
2023-05-18T14:53:44.569Z,28.35
2023-05-18T14:56:16.232Z,27.87
2023-05-18T14:58:47.863Z,27.53
2023-05-18T15:01:16.456Z,27.45
2023-05-18T15:03:45.121Z,27.72
2023-05-18T15:06:13.997Z,27.62
2023-05-18T15:08:42.165Z,28.07
2023-05-18T15:11:10.713Z,27.72
2023-05-18T15:13:42.610Z,27.75
2023-05-18T15:16:11.173Z,27.98
2023-05-18T15:18:39.696Z,28.06
2023-05-18T15:21:08.158Z,27.93
2023-05-18T15:23:36.587Z,27.74
2023-05-18T15:26:06.748Z,27.78
2023-05-18T15:28:37.420Z,27.87
2023-05-18T15:31:07.363Z,28.15
2023-05-18T15:33:36.876Z,28.24
2023-05-18T15:36:06.164Z,28.10
2023-05-18T15:38:34.621Z,26.78
2023-05-18T15:41:04.462Z,26.19
2023-05-18T15:43:33.827Z,25.81
2023-05-18T15:46:02.541Z,25.01
2023-05-18T15:48:32.603Z,25.48
2023-05-18T15:51:01.099Z,25.26
2023-05-18T15:53:29.560Z,25.75
2023-05-18T15:55:59.484Z,25.34
2023-05-18T15:58:28.442Z,25.48
2023-05-18T16:00:57.208Z,25.62
2023-05-18T16:03:26.047Z,25.03
2023-05-18T16:05:55.736Z,25.54
2023-05-18T16:08:24.259Z,25.33
2023-05-18T16:10:52.738Z,24.85
2023-05-18T16:13:23.806Z,25.00
2023-05-18T16:15:54.375Z,24.68
2023-05-18T16:18:22.908Z,24.49
2023-05-18T16:20:51.482Z,24.61
2023-05-18T16:23:21.440Z,24.50
2023-05-18T16:25:50.234Z,24.21
2023-05-18T16:28:18.493Z,24.92
2023-05-18T16:30:47.079Z,24.34
2023-05-18T16:33:16.951Z,24.26
2023-05-18T16:35:45.500Z,24.20
2023-05-18T16:38:14.352Z,23.93
2023-05-18T16:40:44.366Z,23.87
2023-05-18T16:43:12.812Z,23.80
2023-05-18T16:45:42.542Z,24.01
2023-05-18T16:48:11.227Z,23.70
2023-05-18T16:50:39.658Z,23.46
2023-05-18T16:53:08.029Z,23.18
2023-05-18T16:55:36.584Z,23.17
2023-05-18T16:58:09.744Z,22.69
2023-05-18T17:00:38.249Z,22.91
2023-05-18T17:03:07.099Z,22.93
2023-05-18T17:05:36.088Z,22.59
2023-05-18T17:08:04.677Z,22.63
2023-05-18T17:10:35.654Z,22.98
2023-05-18T17:13:05.666Z,22.67
2023-05-18T17:15:34.613Z,22.55
2023-05-18T17:18:03.126Z,22.49
2023-05-18T17:20:32.021Z,22.45
2023-05-18T17:23:02.009Z,22.15
2023-05-18T17:25:30.808Z,22.02
2023-05-18T17:27:59.645Z,22.06
2023-05-18T17:30:29.853Z,21.84
2023-05-18T17:32:58.608Z,21.57
2023-05-18T17:35:27.018Z,21.74
2023-05-18T17:37:55.995Z,21.59
2023-05-18T17:40:27.329Z,21.48
2023-05-18T17:42:55.807Z,21.45
2023-05-18T17:45:24.276Z,21.30
2023-05-18T17:47:54.731Z,21.35
2023-05-18T17:50:26.059Z,21.23
2023-05-18T17:52:54.741Z,21.13
2023-05-18T17:55:23.274Z,21.08
2023-05-18T17:57:52.618Z,20.96
2023-05-18T18:00:22.340Z,21.09
2023-05-18T18:02:51.191Z,20.82
2023-05-18T18:05:21.008Z,20.90
2023-05-18T18:07:49.837Z,20.69
2023-05-18T18:10:18.656Z,20.77
2023-05-18T18:12:47.216Z,20.70
2023-05-18T18:15:16.454Z,20.54
2023-05-18T18:17:45.185Z,20.51
2023-05-18T18:20:13.579Z,20.58
2023-05-18T18:22:43.656Z,20.27
2023-05-18T18:25:12.442Z,20.38
2023-05-18T18:27:41.244Z,20.48
2023-05-18T18:30:11.030Z,20.53
2023-05-18T18:32:39.659Z,20.37
2023-05-18T18:35:08.391Z,20.34
2023-05-18T18:37:37.167Z,20.10
2023-05-18T18:40:08.203Z,20.39
2023-05-18T18:42:36.885Z,20.13
2023-05-18T18:45:06.067Z,19.96
2023-05-18T18:47:35.425Z,20.00
2023-05-18T18:50:07.445Z,19.99
2023-05-18T18:52:36.197Z,19.77
2023-05-18T18:55:07.908Z,19.84
2023-05-18T18:57:36.505Z,19.84
2023-05-18T19:00:07.107Z,19.61
2023-05-18T19:02:38.178Z,19.60
2023-05-18T19:05:07.902Z,19.56
2023-05-18T19:07:37.217Z,19.47
2023-05-18T19:10:10.312Z,19.37
2023-05-18T19:12:39.085Z,19.39
2023-05-18T19:15:09.117Z,19.17
2023-05-18T19:17:37.834Z,19.30
2023-05-18T19:20:08.151Z,19.28
2023-05-18T19:22:37.571Z,19.29
2023-05-18T19:25:08.258Z,19.28
2023-05-18T19:27:37.207Z,19.26
2023-05-18T19:30:08.841Z,19.16
2023-05-18T19:32:40.832Z,18.93
2023-05-18T19:35:10.040Z,18.87
2023-05-18T19:37:38.497Z,18.78
2023-05-18T19:40:09.501Z,18.54
2023-05-18T19:42:38.179Z,18.66
2023-05-18T19:45:07.944Z,18.64
2023-05-18T19:47:37.584Z,18.70
2023-05-18T19:50:07.255Z,18.55
2023-05-18T19:52:36.294Z,18.77
2023-05-18T19:55:05.333Z,18.58
2023-05-18T19:57:36.306Z,18.30
2023-05-18T20:00:08.035Z,18.40
2023-05-18T20:02:41.242Z,18.38
2023-05-18T20:05:12.746Z,18.50
2023-05-18T20:07:41.982Z,18.33
2023-05-18T20:10:10.396Z,18.55
2023-05-18T20:12:41.096Z,18.48
2023-05-18T20:15:10.500Z,18.43
2023-05-18T20:17:39.192Z,18.42
2023-05-18T20:20:08.289Z,18.59
2023-05-18T20:22:37.217Z,18.42
2023-05-18T20:25:06.604Z,18.47
2023-05-18T20:27:35.297Z,18.34
2023-05-18T20:30:06.001Z,18.31
2023-05-18T20:33:04.958Z,18.23
2023-05-18T20:35:34.858Z,18.16
2023-05-18T20:38:07.540Z,18.05
2023-05-18T20:40:38.068Z,18.19
2023-05-18T20:43:10.088Z,18.21
2023-05-18T20:45:42.411Z,18.23
2023-05-18T20:48:12.328Z,18.24
2023-05-18T20:50:41.253Z,18.34
2023-05-18T20:53:14.158Z,18.57
2023-05-18T20:55:50.004Z,18.47
2023-05-18T20:58:19.282Z,18.41
2023-05-18T21:00:51.065Z,18.38
2023-05-18T21:03:20.207Z,18.23
2023-05-18T21:05:50.084Z,18.25
2023-05-18T21:08:18.953Z,18.19
2023-05-18T21:10:47.151Z,18.29
2023-05-18T21:13:18.161Z,18.16
2023-05-18T21:15:46.958Z,18.05
2023-05-18T21:18:17.020Z,18.48
2023-05-18T21:20:45.821Z,18.15
2023-05-18T21:23:14.577Z,18.10
2023-05-18T21:25:43.189Z,17.97
2023-05-18T21:28:11.703Z,18.02
2023-05-18T21:30:41.150Z,18.00
2023-05-18T21:33:10.049Z,18.01
2023-05-18T21:35:41.396Z,18.10
2023-05-18T21:38:09.865Z,17.90
2023-05-18T21:40:43.501Z,17.85
2023-05-18T21:43:12.862Z,17.83
2023-05-18T21:45:43.682Z,17.77
2023-05-18T21:48:11.945Z,18.03
2023-05-18T21:50:41.843Z,17.75
2023-05-18T21:53:10.852Z,17.71
2023-05-18T21:55:39.156Z,18.05
2023-05-18T21:58:07.720Z,17.88
2023-05-18T22:00:37.756Z,17.80
2023-05-18T22:03:08.248Z,17.63
2023-05-18T22:05:36.904Z,17.67
2023-05-18T22:08:07.123Z,17.65
2023-05-18T22:10:35.844Z,17.64
2023-05-18T22:13:04.474Z,17.68
2023-05-18T22:15:33.792Z,17.61
2023-05-18T22:18:02.584Z,17.62
2023-05-18T22:20:32.078Z,17.56
2023-05-18T22:23:01.016Z,17.49
2023-05-18T22:25:42.403Z,17.56
2023-05-18T22:28:11.082Z,17.50
2023-05-18T22:30:40.134Z,17.44
2023-05-18T22:33:08.849Z,17.51
2023-05-18T22:35:38.095Z,17.79
2023-05-18T22:38:06.887Z,17.62
2023-05-18T22:40:36.843Z,17.46
2023-05-18T22:43:05.456Z,17.54
2023-05-18T22:45:34.288Z,17.38
2023-05-18T22:48:04.637Z,17.62
2023-05-18T22:50:33.360Z,17.29
2023-05-18T22:53:03.248Z,17.23
2023-05-18T22:55:33.057Z,17.21
2023-05-18T22:58:03.106Z,17.12
2023-05-18T23:00:32.085Z,17.13
2023-05-18T23:03:01.304Z,16.98
2023-05-18T23:05:30.048Z,16.97
2023-05-18T23:07:59.304Z,17.01
2023-05-18T23:10:30.976Z,17.02
2023-05-18T23:13:00.031Z,17.02
2023-05-18T23:15:30.777Z,17.17
2023-05-18T23:18:04.339Z,16.98
2023-05-18T23:20:34.738Z,17.20
2023-05-18T23:23:03.493Z,17.12
2023-05-18T23:25:31.836Z,17.09
2023-05-18T23:28:00.350Z,16.85
2023-05-18T23:30:32.257Z,16.75
2023-05-18T23:33:01.891Z,16.73
2023-05-18T23:35:31.243Z,16.69
2023-05-18T23:38:06.497Z,16.59
2023-05-18T23:40:35.854Z,16.72
2023-05-18T23:43:04.804Z,16.80
2023-05-18T23:45:35.869Z,16.68
2023-05-18T23:48:05.736Z,16.78
2023-05-18T23:50:35.038Z,16.82
2023-05-18T23:53:05.664Z,16.84
2023-05-18T23:55:36.688Z,16.81
2023-05-18T23:58:06.444Z,16.86
